createdAt,value
2023-05-16T00:01:48.134Z,6.13
2023-05-16T00:04:15.097Z,6.82
2023-05-16T00:06:41.867Z,6.05
2023-05-16T00:09:08.624Z,6.35
2023-05-16T00:11:35.473Z,6.18
2023-05-16T00:14:02.629Z,6.57
2023-05-16T00:16:30.185Z,5.55
2023-05-16T00:19:00.939Z,5.97
2023-05-16T00:21:28.145Z,6.05
2023-05-16T00:23:54.829Z,5.47
2023-05-16T00:26:21.655Z,5.97
2023-05-16T00:28:48.561Z,6.82
2023-05-16T00:31:15.494Z,6.20
2023-05-16T00:33:42.284Z,6.43
2023-05-16T00:36:09.074Z,6.88
2023-05-16T00:38:35.789Z,6.35
2023-05-16T00:41:02.460Z,7.13
2023-05-16T00:43:29.204Z,6.70
2023-05-16T00:45:57.845Z,7.05
2023-05-16T00:48:25.056Z,6.85
2023-05-16T00:50:53.178Z,6.32
2023-05-16T00:53:20.480Z,7.93
2023-05-16T00:55:47.873Z,6.63
2023-05-16T00:58:14.843Z,7.05
2023-05-16T01:00:42.262Z,7.38
2023-05-16T01:03:09.150Z,6.75
2023-05-16T01:05:35.915Z,6.95
2023-05-16T01:08:03.001Z,7.00
2023-05-16T01:16:16.378Z,6.07
2023-05-16T01:21:39.050Z,6.63
2023-05-16T01:24:21.225Z,6.18
2023-05-16T01:26:48.839Z,6.95
2023-05-16T01:29:16.241Z,6.20
2023-05-16T01:31:42.930Z,5.97
2023-05-16T01:34:09.630Z,5.40
2023-05-16T01:36:42.266Z,6.20
2023-05-16T01:39:15.939Z,6.32
2023-05-16T01:42:01.960Z,6.00
2023-05-16T01:44:37.644Z,6.45
2023-05-16T01:50:04.952Z,6.43
2023-05-16T01:52:40.810Z,6.85
2023-05-16T01:55:14.964Z,6.30
2023-05-16T02:00:33.085Z,7.07
2023-05-16T02:02:59.817Z,6.90
2023-05-16T02:05:26.856Z,6.60
2023-05-16T02:07:54.321Z,7.50
2023-05-16T02:10:22.399Z,6.60
2023-05-16T02:18:07.340Z,6.97
2023-05-16T02:20:34.108Z,7.30
2023-05-16T02:23:01.110Z,6.88
2023-05-16T02:25:28.008Z,6.78
2023-05-16T02:27:55.277Z,7.05
2023-05-16T02:33:04.050Z,6.55
2023-05-16T02:35:30.946Z,7.10
2023-05-16T02:37:57.611Z,7.40
2023-05-16T02:40:27.012Z,7.15
2023-05-16T02:42:53.695Z,7.75
2023-05-16T02:50:43.811Z,6.57
2023-05-16T02:53:10.743Z,7.05
2023-05-16T02:55:37.674Z,7.28
2023-05-16T03:00:47.594Z,9.18
2023-05-16T03:03:14.406Z,7.97
2023-05-16T03:05:41.129Z,8.45
2023-05-16T03:08:07.764Z,8.10
2023-05-16T03:10:34.409Z,7.65
2023-05-16T03:18:04.821Z,7.97
2023-05-16T03:23:08.302Z,9.10
2023-05-16T03:25:39.252Z,8.45
2023-05-16T03:28:09.958Z,8.77
2023-05-16T03:30:36.725Z,9.27
2023-05-16T03:33:04.257Z,9.23
2023-05-16T03:35:35.145Z,9.07
2023-05-16T03:38:02.296Z,8.25
2023-05-16T03:40:29.577Z,8.52
2023-05-16T03:42:56.232Z,7.90
2023-05-16T03:45:22.872Z,7.63
2023-05-16T03:47:50.902Z,8.13
2023-05-16T03:50:18.005Z,8.32
2023-05-16T03:52:44.768Z,8.57
2023-05-16T03:55:14.200Z,8.07
2023-05-16T03:57:44.287Z,8.00
2023-05-16T04:00:12.623Z,8.35
2023-05-16T04:07:55.993Z,8.43
2023-05-16T04:10:23.032Z,7.70
2023-05-16T04:12:49.679Z,8.93
2023-05-16T04:15:16.347Z,8.48
2023-05-16T04:17:43.024Z,9.18
2023-05-16T04:20:10.252Z,9.23
2023-05-16T04:22:36.914Z,8.27
2023-05-16T04:25:04.390Z,8.77
2023-05-16T04:27:31.512Z,9.13
2023-05-16T04:29:59.820Z,9.52
2023-05-16T04:32:28.909Z,9.00
2023-05-16T04:34:55.719Z,9.25
2023-05-16T04:37:22.609Z,8.90
2023-05-16T04:39:49.279Z,8.77
2023-05-16T04:42:16.388Z,9.05
2023-05-16T04:44:44.042Z,8.63
2023-05-16T04:47:11.019Z,8.68
2023-05-16T04:49:37.775Z,6.80
2023-05-16T04:52:06.016Z,7.88
2023-05-16T04:54:32.805Z,6.93
2023-05-16T04:56:59.520Z,7.47
2023-05-16T04:59:26.191Z,7.32
2023-05-16T05:01:52.953Z,7.15
2023-05-16T05:04:19.633Z,7.10
2023-05-16T05:06:46.286Z,7.60
2023-05-16T05:09:13.249Z,7.60
2023-05-16T05:11:40.002Z,7.82
2023-05-16T05:14:06.670Z,7.85
2023-05-16T05:16:33.387Z,7.30
2023-05-16T05:19:00.379Z,8.15
2023-05-16T05:21:27.218Z,7.85
2023-05-16T05:23:53.896Z,7.88
2023-05-16T05:26:22.205Z,7.30
2023-05-16T05:29:01.024Z,7.20
2023-05-16T05:31:31.122Z,7.25
2023-05-16T05:33:57.867Z,7.57
2023-05-16T05:36:24.558Z,6.63
2023-05-16T05:38:51.202Z,6.97
2023-05-16T05:41:17.884Z,7.45
2023-05-16T05:43:44.555Z,7.55
2023-05-16T05:46:11.310Z,8.45
2023-05-16T05:48:38.067Z,7.70
2023-05-16T05:51:04.845Z,8.18
2023-05-16T05:53:31.530Z,7.45
2023-05-16T05:55:58.194Z,8.00
2023-05-16T05:58:24.939Z,7.70
2023-05-16T06:00:51.682Z,7.00
2023-05-16T06:03:18.597Z,8.20
2023-05-16T06:05:45.348Z,8.07
2023-05-16T06:08:12.076Z,8.85
2023-05-16T06:10:38.717Z,8.20
2023-05-16T06:13:05.429Z,8.45
2023-05-16T06:15:32.109Z,8.55
2023-05-16T06:17:59.312Z,7.70
2023-05-16T06:20:26.464Z,8.63
2023-05-16T06:22:53.208Z,8.48
2023-05-16T06:25:19.923Z,8.07
2023-05-16T06:27:46.583Z,8.73
2023-05-16T06:30:13.547Z,9.35
2023-05-16T06:32:43.567Z,9.73
2023-05-16T06:35:10.504Z,8.55
2023-05-16T06:37:37.180Z,8.73
2023-05-16T06:40:04.640Z,9.05
2023-05-16T06:42:31.410Z,9.35
2023-05-16T06:44:58.118Z,8.98
2023-05-16T06:47:24.815Z,9.48
2023-05-16T06:49:51.700Z,10.43
2023-05-16T06:52:18.462Z,10.32
2023-05-16T06:54:45.217Z,9.55
2023-05-16T06:57:11.956Z,10.07
2023-05-16T06:59:38.790Z,9.52
2023-05-16T07:02:06.096Z,10.70
2023-05-16T07:04:32.910Z,16.92
2023-05-16T07:06:59.657Z,10.65
2023-05-16T07:09:26.347Z,9.77
2023-05-16T07:11:53.035Z,9.40
2023-05-16T07:14:19.710Z,9.80
2023-05-16T07:16:46.735Z,9.63
2023-05-16T07:19:13.772Z,10.70
2023-05-16T07:21:40.739Z,10.80
2023-05-16T07:24:07.913Z,10.35
2023-05-16T07:26:34.731Z,9.45
2023-05-16T07:29:02.780Z,9.73
2023-05-16T07:31:29.540Z,8.93
2023-05-16T07:33:58.139Z,9.20
2023-05-16T07:36:24.992Z,8.68
2023-05-16T07:38:51.727Z,8.65
2023-05-16T07:41:18.463Z,8.23
2023-05-16T07:43:45.203Z,8.40
2023-05-16T07:46:12.096Z,8.23
2023-05-16T07:48:38.916Z,8.95
2023-05-16T07:51:05.773Z,8.25
2023-05-16T07:53:32.503Z,8.25
2023-05-16T07:56:02.128Z,8.23
2023-05-16T07:58:28.988Z,7.90
2023-05-16T08:00:55.943Z,7.75
2023-05-16T08:03:22.813Z,6.53
2023-05-16T08:05:49.915Z,8.60
2023-05-16T08:08:16.633Z,8.88
2023-05-16T08:10:43.467Z,8.32
2023-05-16T08:13:10.162Z,8.02
2023-05-16T08:15:37.083Z,7.65
2023-05-16T08:18:03.971Z,7.55
2023-05-16T08:20:30.696Z,6.78
2023-05-16T08:22:57.375Z,7.78
2023-05-16T08:25:24.154Z,6.75
2023-05-16T08:27:51.469Z,6.90
2023-05-16T08:30:18.262Z,6.50
2023-05-16T08:32:45.020Z,5.80
2023-05-16T08:35:13.009Z,5.65
2023-05-16T08:37:39.801Z,5.68
2023-05-16T08:40:09.531Z,5.00
2023-05-16T08:42:37.518Z,5.20
2023-05-16T08:45:05.797Z,4.57
2023-05-16T08:47:33.164Z,4.72
2023-05-16T08:50:02.803Z,5.45
2023-05-16T08:52:31.723Z,5.22
2023-05-16T08:57:33.831Z,4.95
2023-05-16T09:00:00.802Z,5.00
2023-05-16T09:02:28.583Z,4.50
2023-05-16T09:04:57.818Z,4.30
2023-05-16T09:07:24.950Z,4.50
2023-05-16T09:09:51.731Z,3.97
2023-05-16T09:12:19.844Z,4.82
2023-05-16T09:14:47.469Z,4.47
2023-05-16T09:17:18.442Z,4.93
2023-05-16T09:19:50.675Z,4.57
2023-05-16T09:22:18.199Z,4.85
2023-05-16T09:24:46.152Z,4.10
2023-05-16T09:27:16.291Z,4.35
2023-05-16T09:29:44.094Z,5.25
2023-05-16T09:32:12.276Z,3.95
2023-05-16T09:34:49.502Z,3.88
2023-05-16T09:37:16.496Z,5.63
2023-05-16T09:39:54.960Z,5.80
2023-05-16T09:42:22.763Z,4.93
2023-05-16T09:44:51.776Z,4.95
2023-05-16T09:47:20.166Z,6.05
2023-05-16T09:49:48.963Z,5.82
2023-05-16T09:52:16.732Z,4.20
2023-05-16T09:54:43.493Z,4.78
2023-05-16T09:57:10.473Z,5.55
2023-05-16T09:59:38.600Z,5.00
2023-05-16T10:02:07.453Z,7.00
2023-05-16T10:04:38.232Z,5.80
2023-05-16T10:07:06.835Z,4.70
2023-05-16T10:09:34.204Z,4.75
2023-05-16T10:12:05.272Z,6.50
2023-05-16T10:14:37.484Z,6.93
2023-05-16T10:17:06.553Z,8.18
2023-05-16T10:19:36.367Z,7.60
2023-05-16T10:22:12.038Z,10.82
2023-05-16T10:24:54.887Z,8.77
2023-05-16T10:27:22.597Z,11.20
2023-05-16T10:29:54.716Z,7.28
2023-05-16T10:32:25.042Z,7.00
2023-05-16T10:34:52.491Z,6.13
2023-05-16T10:37:19.333Z,5.90
2023-05-16T10:39:46.474Z,7.03
2023-05-16T10:42:18.243Z,9.60
2023-05-16T10:44:54.649Z,9.05
2023-05-16T10:47:29.381Z,5.55
2023-05-16T10:49:56.107Z,5.57
2023-05-16T10:52:34.226Z,5.63
2023-05-16T10:55:07.050Z,5.03
2023-05-16T10:57:36.462Z,4.57
2023-05-16T11:00:07.928Z,4.68
2023-05-16T11:02:42.821Z,4.53
2023-05-16T11:05:17.761Z,3.90
2023-05-16T11:07:44.707Z,4.63
2023-05-16T11:10:16.242Z,4.88
2023-05-16T11:12:45.473Z,4.05
2023-05-16T11:15:25.578Z,13.65
2023-05-16T11:18:06.325Z,3.67
2023-05-16T11:20:38.042Z,3.83
2023-05-16T11:23:17.026Z,3.92
2023-05-16T11:25:46.032Z,3.28
2023-05-16T11:28:14.087Z,3.97
2023-05-16T11:30:56.245Z,3.60
2023-05-16T11:33:24.100Z,3.45
2023-05-16T11:36:14.530Z,4.05
2023-05-16T11:38:43.814Z,3.72
2023-05-16T11:41:11.443Z,4.07
2023-05-16T11:43:44.685Z,4.13
2023-05-16T11:46:12.548Z,3.65
2023-05-16T11:48:39.510Z,3.75
2023-05-16T11:51:06.792Z,3.50
2023-05-16T11:53:34.414Z,4.18
2023-05-16T11:56:02.224Z,3.67
2023-05-16T11:58:29.260Z,3.28
2023-05-16T12:00:56.173Z,4.00
2023-05-16T12:03:24.049Z,2.70
2023-05-16T12:05:55.159Z,3.45
2023-05-16T12:08:22.539Z,2.75
2023-05-16T12:10:50.475Z,2.13
2023-05-16T12:13:22.570Z,3.00
2023-05-16T12:15:51.043Z,2.95
2023-05-16T12:18:18.302Z,3.25
2023-05-16T12:20:45.399Z,2.65
2023-05-16T12:23:15.450Z,2.85
2023-05-16T12:25:46.951Z,2.92
2023-05-16T12:28:15.170Z,2.38
2023-05-16T12:30:44.137Z,2.60
2023-05-16T12:33:13.178Z,2.22
2023-05-16T12:35:42.486Z,2.80
2023-05-16T12:38:11.151Z,2.40
2023-05-16T12:40:42.095Z,2.25
2023-05-16T12:43:24.288Z,2.40
2023-05-16T12:45:55.364Z,2.10
2023-05-16T12:48:31.771Z,1.90
2023-05-16T12:51:11.528Z,1.70
2023-05-16T12:53:44.751Z,1.73
2023-05-16T12:56:16.420Z,1.70
2023-05-16T12:58:43.543Z,1.60
2023-05-16T13:01:12.078Z,1.52
2023-05-16T13:03:38.924Z,1.70
2023-05-16T13:06:06.266Z,1.50
2023-05-16T13:08:33.024Z,1.60
2023-05-16T13:10:59.772Z,1.75
2023-05-16T13:13:35.982Z,1.65
2023-05-16T13:16:04.286Z,1.20
2023-05-16T13:18:31.741Z,1.55
2023-05-16T13:20:58.581Z,1.45
2023-05-16T13:23:25.397Z,1.30
2023-05-16T13:25:53.151Z,1.30
2023-05-16T13:28:19.878Z,1.33
2023-05-16T13:30:46.837Z,2.00
2023-05-16T13:33:13.720Z,1.60
2023-05-16T13:35:40.496Z,1.52
2023-05-16T13:38:07.286Z,1.60
2023-05-16T13:40:34.062Z,1.35
2023-05-16T13:43:01.525Z,1.58
2023-05-16T13:45:28.850Z,1.50
2023-05-16T13:47:55.870Z,1.70
2023-05-16T13:50:22.541Z,1.30
2023-05-16T13:52:49.263Z,1.50
2023-05-16T13:55:16.143Z,1.50
2023-05-16T13:57:42.886Z,1.60
2023-05-16T14:00:35.187Z,1.25
2023-05-16T14:02:59.072Z,1.30
2023-05-16T14:05:26.456Z,2.63
2023-05-16T14:07:53.495Z,1.40
2023-05-16T14:10:20.234Z,2.00
2023-05-16T14:12:46.978Z,1.60
2023-05-16T14:15:13.730Z,2.40
2023-05-16T14:17:40.582Z,1.95
2023-05-16T14:20:10.803Z,1.88
2023-05-16T14:22:38.366Z,4.60
2023-05-16T14:25:06.258Z,1.70
2023-05-16T14:27:32.968Z,1.80
2023-05-16T14:29:59.756Z,2.80
2023-05-16T14:32:26.714Z,1.63
2023-05-16T14:34:53.794Z,1.77
2023-05-16T14:37:20.934Z,2.40
2023-05-16T14:39:49.732Z,2.25
2023-05-16T14:42:17.722Z,3.60
2023-05-16T14:44:44.874Z,2.60
2023-05-16T14:47:11.780Z,2.10
2023-05-16T14:49:38.589Z,1.60
2023-05-16T14:52:06.327Z,1.73
2023-05-16T14:54:33.120Z,1.92
2023-05-16T14:57:00.168Z,2.33
2023-05-16T14:59:27.864Z,2.10
2023-05-16T15:01:54.873Z,2.40
2023-05-16T15:04:21.687Z,1.90
2023-05-16T15:06:48.416Z,2.17
2023-05-16T15:09:15.102Z,2.47
2023-05-16T15:11:41.798Z,2.13
2023-05-16T15:14:08.566Z,1.85
2023-05-16T15:16:35.400Z,1.90
2023-05-16T15:19:02.174Z,2.97
2023-05-16T15:21:29.071Z,2.15
2023-05-16T15:23:55.854Z,1.60
2023-05-16T15:26:22.840Z,2.00
2023-05-16T15:28:49.560Z,1.63
2023-05-16T15:31:16.646Z,2.00
2023-05-16T15:33:48.110Z,2.22
2023-05-16T15:36:15.334Z,2.25
2023-05-16T15:38:45.355Z,2.80
2023-05-16T15:41:28.622Z,1.98
2023-05-16T15:44:02.488Z,1.50
2023-05-16T15:46:32.753Z,1.98
2023-05-16T15:48:59.724Z,1.88
2023-05-16T15:51:26.522Z,2.05
2023-05-16T15:53:53.403Z,1.88
2023-05-16T15:56:20.154Z,2.60
2023-05-16T15:58:46.990Z,2.80
2023-05-16T16:01:13.750Z,2.58
2023-05-16T16:03:40.650Z,1.63
2023-05-16T16:06:07.598Z,1.77
2023-05-16T16:08:34.329Z,2.90
2023-05-16T16:11:01.127Z,1.63
2023-05-16T16:13:27.818Z,2.70
2023-05-16T16:15:54.716Z,2.40
2023-05-16T16:18:21.486Z,2.20
2023-05-16T16:20:48.269Z,2.08
2023-05-16T16:23:15.174Z,3.25
2023-05-16T16:25:41.872Z,2.10
2023-05-16T16:28:08.542Z,2.30
2023-05-16T16:30:35.344Z,2.00
2023-05-16T16:33:02.095Z,1.98
2023-05-16T16:35:28.991Z,2.20
2023-05-16T16:38:06.139Z,1.70
2023-05-16T16:40:33.836Z,2.20
2023-05-16T16:43:01.306Z,1.52
2023-05-16T16:45:28.495Z,1.75
2023-05-16T16:47:55.625Z,1.42
2023-05-16T16:50:22.647Z,2.08
2023-05-16T16:52:49.435Z,1.20
2023-05-16T16:55:16.584Z,1.40
2023-05-16T16:57:43.291Z,1.38
2023-05-16T17:00:11.496Z,1.27
2023-05-16T17:02:38.370Z,1.70
2023-05-16T17:05:06.360Z,1.73
2023-05-16T17:07:33.556Z,1.15
2023-05-16T17:10:01.100Z,1.60
2023-05-16T17:12:28.727Z,2.15
2023-05-16T17:14:57.163Z,1.88
2023-05-16T17:17:25.114Z,1.27
2023-05-16T17:19:52.167Z,1.60
2023-05-16T17:22:19.169Z,1.10
2023-05-16T17:24:45.942Z,2.47
2023-05-16T17:27:13.473Z,2.17
2023-05-16T17:29:40.166Z,1.67
2023-05-16T17:32:07.051Z,2.17
2023-05-16T17:34:33.742Z,1.85
2023-05-16T17:37:00.558Z,1.40
2023-05-16T17:39:27.297Z,1.95
2023-05-16T17:41:55.028Z,1.45
2023-05-16T17:44:21.710Z,1.58
2023-05-16T17:46:48.545Z,1.63
2023-05-16T17:49:15.395Z,1.67
2023-05-16T17:51:47.292Z,1.30
2023-05-16T17:54:14.457Z,1.60
2023-05-16T17:56:42.709Z,1.80
2023-05-16T17:59:10.093Z,2.10
2023-05-16T18:01:36.835Z,1.10
2023-05-16T18:04:04.839Z,2.38
2023-05-16T18:06:31.834Z,2.13
2023-05-16T18:08:58.736Z,2.33
2023-05-16T18:11:25.506Z,1.45
2023-05-16T18:13:52.313Z,1.50
2023-05-16T18:16:19.073Z,1.30
2023-05-16T18:18:45.810Z,1.70
2023-05-16T18:21:12.692Z,1.38
2023-05-16T18:23:39.377Z,1.17
2023-05-16T18:26:06.187Z,1.55
2023-05-16T18:28:33.408Z,1.52
2023-05-16T18:31:00.274Z,1.45
2023-05-16T18:33:27.012Z,1.40
2023-05-16T18:35:53.738Z,1.20
2023-05-16T18:38:31.429Z,1.10
2023-05-16T18:40:59.994Z,1.10
2023-05-16T18:43:26.911Z,1.20
2023-05-16T18:45:53.621Z,1.23
2023-05-16T18:48:20.622Z,1.30
2023-05-16T18:50:47.400Z,1.33
2023-05-16T18:53:14.123Z,0.90
2023-05-16T18:55:40.822Z,1.25
2023-05-16T18:58:07.558Z,1.02
2023-05-16T19:00:34.399Z,1.27
2023-05-16T19:03:01.386Z,1.75
2023-05-16T19:05:28.552Z,1.67
2023-05-16T19:07:55.550Z,1.70
2023-05-16T19:10:22.376Z,1.60
2023-05-16T19:12:49.549Z,1.10
2023-05-16T19:15:16.335Z,1.70
2023-05-16T19:17:43.458Z,1.17
2023-05-16T19:20:10.921Z,1.27
2023-05-16T19:22:37.955Z,1.52
2023-05-16T19:25:05.722Z,1.55
2023-05-16T19:27:32.778Z,1.10
2023-05-16T19:29:59.449Z,1.10
2023-05-16T19:32:26.296Z,1.50
2023-05-16T19:34:53.472Z,1.52
2023-05-16T19:37:20.472Z,1.63
2023-05-16T19:39:47.318Z,1.42
2023-05-16T19:42:14.065Z,1.15
2023-05-16T19:44:42.593Z,1.13
2023-05-16T19:47:09.312Z,0.98
2023-05-16T19:49:36.331Z,1.40
2023-05-16T19:52:04.689Z,1.50
2023-05-16T19:54:31.388Z,1.70
2023-05-16T19:57:00.952Z,1.75
2023-05-16T19:59:27.667Z,1.77
2023-05-16T20:01:54.407Z,2.20
2023-05-16T20:04:21.288Z,1.92
2023-05-16T20:06:48.128Z,1.90
2023-05-16T20:09:14.954Z,1.38
2023-05-16T20:11:41.689Z,1.70
2023-05-16T20:14:08.425Z,1.95
2023-05-16T20:16:35.191Z,1.45
2023-05-16T20:19:02.006Z,1.88
2023-05-16T20:21:28.828Z,1.90
2023-05-16T20:23:55.665Z,2.47
2023-05-16T20:26:22.474Z,2.33
2023-05-16T20:28:49.160Z,2.70
2023-05-16T20:31:15.919Z,2.17
2023-05-16T20:33:42.755Z,2.25
2023-05-16T20:36:09.583Z,2.05
2023-05-16T20:38:36.412Z,1.70
2023-05-16T20:41:04.563Z,1.60
2023-05-16T20:43:31.298Z,1.75
2023-05-16T20:45:58.014Z,1.30
2023-05-16T20:48:24.884Z,1.50
2023-05-16T20:50:51.650Z,1.42
2023-05-16T20:53:18.366Z,1.48
2023-05-16T20:55:45.614Z,1.08
2023-05-16T20:58:12.417Z,1.20
2023-05-16T21:00:39.078Z,1.00
2023-05-16T21:03:05.919Z,1.27
2023-05-16T21:05:33.546Z,1.65
2023-05-16T21:08:00.292Z,1.80
2023-05-16T21:10:27.069Z,2.05
2023-05-16T21:12:53.762Z,2.42
2023-05-16T21:15:23.351Z,2.50
2023-05-16T21:17:50.460Z,1.50
2023-05-16T21:20:17.472Z,1.83
2023-05-16T21:22:44.181Z,2.30
2023-05-16T21:25:12.306Z,1.70
2023-05-16T21:27:39.878Z,1.67
2023-05-16T21:30:07.392Z,1.80
2023-05-16T21:32:34.064Z,1.88
2023-05-16T21:35:01.033Z,1.88
2023-05-16T21:37:27.915Z,1.55
2023-05-16T21:39:54.731Z,1.52
2023-05-16T21:42:21.472Z,1.73
2023-05-16T21:44:48.135Z,1.15
2023-05-16T21:47:14.834Z,1.40
2023-05-16T21:49:41.566Z,1.20
2023-05-16T21:52:08.302Z,1.10
2023-05-16T21:54:35.056Z,1.40
2023-05-16T21:57:01.834Z,1.65
2023-05-16T21:59:28.618Z,1.98
2023-05-16T22:01:55.301Z,1.92
2023-05-16T22:04:22.187Z,1.80
2023-05-16T22:06:48.933Z,1.58
2023-05-16T22:09:15.826Z,2.05
2023-05-16T22:11:42.498Z,1.73
2023-05-16T22:14:09.261Z,1.52
2023-05-16T22:16:36.188Z,1.65
2023-05-16T22:19:03.316Z,1.55
2023-05-16T22:21:30.094Z,1.70
2023-05-16T22:23:56.756Z,1.63
2023-05-16T22:26:23.658Z,1.20
2023-05-16T22:28:50.335Z,1.08
2023-05-16T22:31:17.028Z,1.33
2023-05-16T22:33:43.856Z,1.85
2023-05-16T22:36:10.606Z,1.40
2023-05-16T22:38:37.386Z,1.52
2023-05-16T22:41:04.285Z,1.08
2023-05-16T22:43:31.049Z,2.10
2023-05-16T22:45:57.723Z,1.85
2023-05-16T22:48:24.432Z,1.70
2023-05-16T22:50:51.132Z,1.67
2023-05-16T22:53:17.803Z,1.27
2023-05-16T22:55:44.485Z,1.77
2023-05-16T22:58:11.191Z,1.55
2023-05-16T23:00:37.905Z,1.67
2023-05-16T23:03:04.770Z,1.80
2023-05-16T23:05:31.780Z,1.65
2023-05-16T23:07:58.544Z,2.58
2023-05-16T23:10:25.313Z,3.38
2023-05-16T23:12:52.036Z,4.55
2023-05-16T23:15:18.805Z,3.33
2023-05-16T23:17:45.596Z,2.53
2023-05-16T23:20:13.078Z,2.85
2023-05-16T23:22:39.775Z,1.83
2023-05-16T23:25:07.227Z,1.48
2023-05-16T23:27:33.931Z,1.13
2023-05-16T23:30:00.711Z,1.30
2023-05-16T23:32:27.548Z,1.27
2023-05-16T23:34:55.504Z,1.13
2023-05-16T23:37:22.238Z,1.25
2023-05-16T23:39:48.959Z,0.88
2023-05-16T23:42:15.816Z,0.90
2023-05-16T23:44:42.586Z,1.08
2023-05-16T23:47:09.400Z,2.10
2023-05-16T23:49:36.065Z,2.88
2023-05-16T23:52:05.740Z,3.80
2023-05-16T23:54:35.773Z,2.33
2023-05-16T23:57:02.537Z,1.55
2023-05-16T23:59:29.219Z,2.10
